createdAt,value
2023-04-26T00:00:35.394Z,75.80
2023-04-26T00:03:02.320Z,75.90
2023-04-26T00:05:29.624Z,75.80
2023-04-26T00:07:56.642Z,76.00
2023-04-26T00:10:23.297Z,76.10
2023-04-26T00:12:49.970Z,76.10
2023-04-26T00:15:16.697Z,76.00
2023-04-26T00:17:44.066Z,76.50
2023-04-26T00:20:13.004Z,77.20
2023-04-26T00:22:40.055Z,76.50
2023-04-26T00:25:07.060Z,77.00
2023-04-26T00:27:33.741Z,77.30
2023-04-26T00:30:00.396Z,77.70
2023-04-26T00:32:27.186Z,78.00
2023-04-26T00:34:53.916Z,78.10
2023-04-26T00:37:21.504Z,78.40
2023-04-26T00:39:48.316Z,78.80
2023-04-26T00:42:15.274Z,79.00
2023-04-26T00:44:41.987Z,79.20
2023-04-26T00:47:08.877Z,79.60
2023-04-26T00:49:35.585Z,79.50
2023-04-26T00:52:02.698Z,79.70
2023-04-26T00:54:29.428Z,79.80
2023-04-26T00:56:56.190Z,79.70
2023-04-26T00:59:23.366Z,79.80
2023-04-26T01:01:50.130Z,80.40
2023-04-26T01:04:17.931Z,80.00
2023-04-26T01:06:45.933Z,80.20
2023-04-26T01:09:15.506Z,80.40
2023-04-26T01:11:43.575Z,80.40
2023-04-26T01:14:10.798Z,80.50
2023-04-26T01:16:38.592Z,80.50
2023-04-26T01:19:12.971Z,80.40
2023-04-26T01:21:40.824Z,80.10
2023-04-26T01:24:09.545Z,80.10
2023-04-26T01:26:36.948Z,79.80
2023-04-26T01:29:15.888Z,79.30
2023-04-26T01:31:43.158Z,79.10
2023-04-26T01:34:09.887Z,79.10
2023-04-26T01:36:36.994Z,79.10
2023-04-26T01:39:04.245Z,79.10
2023-04-26T01:41:31.367Z,79.10
2023-04-26T01:43:58.023Z,79.00
2023-04-26T01:46:24.803Z,79.40
2023-04-26T01:48:51.840Z,79.70
2023-04-26T01:51:18.627Z,79.70
2023-04-26T01:53:45.333Z,79.90
2023-04-26T01:56:11.980Z,80.10
2023-04-26T01:58:38.717Z,80.20
2023-04-26T02:01:07.551Z,80.60
2023-04-26T02:03:34.516Z,80.60
2023-04-26T02:06:01.321Z,80.50
2023-04-26T02:08:27.941Z,80.70
2023-04-26T02:10:54.621Z,81.00
2023-04-26T02:13:21.391Z,81.50
2023-04-26T02:15:48.895Z,81.80
2023-04-26T02:18:17.073Z,82.50
2023-04-26T02:20:45.714Z,83.00
2023-04-26T02:23:12.650Z,83.30
2023-04-26T02:25:39.901Z,83.40
2023-04-26T02:28:06.629Z,83.10
2023-04-26T02:30:33.454Z,83.20
2023-04-26T02:33:00.135Z,83.10
2023-04-26T02:35:26.819Z,83.40
2023-04-26T02:37:53.485Z,83.80
2023-04-26T02:40:20.410Z,84.00
2023-04-26T02:42:47.456Z,84.50
2023-04-26T02:45:14.452Z,85.10
2023-04-26T02:47:41.176Z,85.10
2023-04-26T02:50:09.479Z,85.10
2023-04-26T02:52:36.937Z,84.90
2023-04-26T02:55:04.635Z,85.10
2023-04-26T02:57:31.971Z,85.20
2023-04-26T02:59:58.971Z,85.40
2023-04-26T03:02:26.225Z,85.40
2023-04-26T03:04:53.073Z,85.40
2023-04-26T03:07:19.721Z,85.60
2023-04-26T03:09:46.300Z,85.80
2023-04-26T03:12:13.028Z,85.80
2023-04-26T03:14:39.691Z,85.90
2023-04-26T03:17:06.317Z,85.90
2023-04-26T03:19:33.044Z,86.10
2023-04-26T03:21:59.723Z,86.10
2023-04-26T03:24:26.703Z,86.20
2023-04-26T03:26:53.377Z,86.20
2023-04-26T03:29:20.025Z,86.30
2023-04-26T03:31:46.804Z,86.30
2023-04-26T03:34:13.563Z,86.40
2023-04-26T03:36:40.273Z,86.50
2023-04-26T03:39:07.456Z,86.50
2023-04-26T03:41:36.823Z,86.80
2023-04-26T03:44:03.592Z,87.00
2023-04-26T03:46:30.331Z,86.90
2023-04-26T03:48:56.995Z,86.90
2023-04-26T03:51:23.631Z,87.00
2023-04-26T03:53:50.966Z,87.20
2023-04-26T03:56:17.696Z,87.40
2023-04-26T03:58:44.436Z,87.30
2023-04-26T04:01:11.058Z,87.20
2023-04-26T04:03:40.685Z,87.40
2023-04-26T04:06:08.003Z,87.30
2023-04-26T04:08:34.713Z,88.40
2023-04-26T04:11:01.592Z,87.70
2023-04-26T04:13:28.213Z,87.60
2023-04-26T04:15:54.998Z,87.80
2023-04-26T04:18:21.786Z,88.00
2023-04-26T04:20:48.492Z,88.00
2023-04-26T04:23:15.618Z,88.20
2023-04-26T04:25:42.328Z,88.30
2023-04-26T04:28:08.982Z,88.30
2023-04-26T04:30:35.694Z,88.60
2023-04-26T04:33:03.275Z,88.70
2023-04-26T04:35:33.683Z,88.60
2023-04-26T04:38:01.616Z,88.60
2023-04-26T04:40:28.409Z,88.50
2023-04-26T04:42:55.628Z,88.30
2023-04-26T04:45:23.000Z,88.20
2023-04-26T04:47:49.643Z,88.20
2023-04-26T04:50:16.496Z,88.30
2023-04-26T04:52:43.147Z,88.40
2023-04-26T04:55:10.007Z,88.40
2023-04-26T04:57:36.927Z,88.40
2023-04-26T05:00:10.234Z,89.30
2023-04-26T05:02:37.399Z,89.20
2023-04-26T05:05:05.438Z,89.70
2023-04-26T05:07:32.636Z,90.20
2023-04-26T05:10:00.161Z,90.00
2023-04-26T05:12:27.409Z,90.00
2023-04-26T05:14:54.179Z,89.60
2023-04-26T05:17:20.894Z,88.40
2023-04-26T05:19:47.600Z,87.30
2023-04-26T05:22:18.683Z,86.50
2023-04-26T05:24:47.454Z,84.20
2023-04-26T05:27:14.600Z,81.90
2023-04-26T05:29:42.007Z,80.20
2023-04-26T05:32:09.021Z,79.60
2023-04-26T05:34:36.602Z,79.60
2023-04-26T05:37:03.608Z,77.70
2023-04-26T05:39:30.597Z,77.20
2023-04-26T05:41:57.327Z,75.90
2023-04-26T05:44:24.542Z,78.00
2023-04-26T05:46:51.442Z,78.10
2023-04-26T05:49:18.290Z,77.40
2023-04-26T05:51:44.967Z,73.70
2023-04-26T05:54:11.737Z,72.80
2023-04-26T05:56:38.469Z,74.10
2023-04-26T05:59:05.643Z,74.00
2023-04-26T06:01:32.310Z,72.20
2023-04-26T06:04:00.803Z,72.70
2023-04-26T06:06:28.306Z,70.80
2023-04-26T06:08:55.499Z,70.40
2023-04-26T06:11:22.390Z,68.30
2023-04-26T06:13:49.008Z,67.30
2023-04-26T06:16:16.566Z,67.00
2023-04-26T06:18:43.853Z,68.80
2023-04-26T06:21:10.606Z,68.50
2023-04-26T06:23:37.317Z,67.80
2023-04-26T06:26:04.025Z,68.70
2023-04-26T06:28:30.942Z,68.10
2023-04-26T06:30:57.587Z,68.20
2023-04-26T06:33:24.299Z,68.40
2023-04-26T06:35:51.611Z,70.20
2023-04-26T06:38:18.244Z,70.00
2023-04-26T06:40:44.937Z,69.90
2023-04-26T06:43:11.685Z,71.40
2023-04-26T06:45:38.381Z,71.80
2023-04-26T06:48:05.451Z,71.60
2023-04-26T06:50:32.334Z,69.10
2023-04-26T06:52:59.066Z,70.00
2023-04-26T06:55:25.768Z,68.90
2023-04-26T06:57:52.417Z,69.30
2023-04-26T07:00:19.397Z,69.70
2023-04-26T07:02:46.361Z,69.20
2023-04-26T07:05:14.897Z,69.90
2023-04-26T07:07:41.715Z,70.70
2023-04-26T07:10:09.542Z,69.00
2023-04-26T07:12:36.483Z,68.00
2023-04-26T07:15:04.481Z,69.70
2023-04-26T07:17:31.173Z,71.10
2023-04-26T07:19:57.967Z,66.70
2023-04-26T07:22:24.751Z,66.30
2023-04-26T07:24:51.379Z,66.20
2023-04-26T07:27:18.042Z,62.70
2023-04-26T07:29:44.720Z,60.60
2023-04-26T07:32:11.547Z,57.10
2023-04-26T07:34:38.311Z,60.60
2023-04-26T07:37:05.029Z,57.90
2023-04-26T07:39:31.661Z,53.70
2023-04-26T07:41:58.313Z,50.60
2023-04-26T07:44:25.054Z,46.10
2023-04-26T07:46:51.794Z,36.60
2023-04-26T07:49:18.484Z,34.70
2023-04-26T07:51:45.803Z,31.10
2023-04-26T07:54:12.526Z,33.20
2023-04-26T07:56:39.174Z,36.90
2023-04-26T07:59:05.789Z,41.30
2023-04-26T08:01:32.506Z,37.00
2023-04-26T08:03:59.587Z,29.90
2023-04-26T08:06:27.651Z,28.30
2023-04-26T08:08:54.385Z,27.10
2023-04-26T08:11:21.739Z,29.50
2023-04-26T08:13:48.447Z,32.90
2023-04-26T08:16:15.318Z,34.70
2023-04-26T08:18:43.933Z,40.00
2023-04-26T08:21:12.049Z,34.10
2023-04-26T08:23:38.798Z,30.60
2023-04-26T08:26:06.356Z,32.00
2023-04-26T08:28:33.129Z,30.10
2023-04-26T08:30:59.866Z,31.00
2023-04-26T08:33:26.649Z,31.60
2023-04-26T08:35:53.364Z,30.90
2023-04-26T08:38:22.540Z,34.20
2023-04-26T08:40:49.367Z,35.60
2023-04-26T08:43:19.343Z,34.30
2023-04-26T08:45:47.167Z,36.00
2023-04-26T08:48:16.089Z,36.10
2023-04-26T08:50:46.077Z,31.60
2023-04-26T08:53:19.583Z,33.30
2023-04-26T08:55:49.279Z,32.50
2023-04-26T08:58:17.070Z,33.50
2023-04-26T09:00:48.486Z,34.30
2023-04-26T09:03:15.799Z,33.60
2023-04-26T09:05:46.331Z,32.30
2023-04-26T09:08:17.587Z,34.10
2023-04-26T09:10:44.533Z,34.20
2023-04-26T09:13:11.632Z,34.20
2023-04-26T09:15:38.777Z,36.20
2023-04-26T09:18:22.838Z,35.80
2023-04-26T09:21:07.952Z,35.00
2023-04-26T09:23:35.376Z,31.00
2023-04-26T09:26:22.224Z,32.20
2023-04-26T09:28:49.251Z,32.30
2023-04-26T09:31:38.254Z,33.30
2023-04-26T09:34:05.284Z,32.30
2023-04-26T09:36:32.193Z,32.80
2023-04-26T09:39:00.468Z,31.20
2023-04-26T09:41:43.679Z,29.50
2023-04-26T09:44:23.686Z,29.90
2023-04-26T09:47:10.170Z,27.40
2023-04-26T09:49:50.689Z,31.60
2023-04-26T09:52:20.869Z,30.00
2023-04-26T09:54:50.451Z,28.70
2023-04-26T09:57:18.464Z,27.50
2023-04-26T09:59:54.989Z,27.60
2023-04-26T10:02:27.530Z,29.90
2023-04-26T10:04:57.148Z,28.30
2023-04-26T10:07:25.211Z,28.70
2023-04-26T10:09:52.067Z,28.60
2023-04-26T10:12:20.079Z,28.70
2023-04-26T10:14:47.256Z,29.40
2023-04-26T10:17:14.179Z,29.80
2023-04-26T10:19:44.590Z,27.70
2023-04-26T10:22:21.425Z,29.40
2023-04-26T10:24:49.051Z,26.60
2023-04-26T10:27:16.206Z,27.60
2023-04-26T10:29:54.897Z,30.60
2023-04-26T10:32:22.466Z,26.70
2023-04-26T10:35:17.112Z,28.40
2023-04-26T10:38:04.909Z,25.40
2023-04-26T10:40:38.709Z,25.70
2023-04-26T10:43:11.428Z,25.40
2023-04-26T10:45:39.831Z,24.80
2023-04-26T10:48:20.352Z,23.50
2023-04-26T10:51:01.899Z,24.70
2023-04-26T10:53:29.850Z,25.30
2023-04-26T10:55:56.627Z,26.70
2023-04-26T10:58:28.244Z,25.90
2023-04-26T11:01:21.494Z,26.70
2023-04-26T11:04:09.536Z,28.10
2023-04-26T11:06:52.489Z,26.30
2023-04-26T11:09:36.315Z,27.50
2023-04-26T11:12:06.620Z,27.40
2023-04-26T11:14:34.612Z,27.60
2023-04-26T11:17:08.351Z,28.20
2023-04-26T11:19:35.579Z,27.60
2023-04-26T11:22:03.652Z,26.10
2023-04-26T11:24:31.401Z,23.70
2023-04-26T11:26:58.458Z,25.70
2023-04-26T11:29:25.864Z,24.90
2023-04-26T11:31:59.498Z,24.30
2023-04-26T11:34:36.416Z,24.20
2023-04-26T11:37:04.901Z,23.90
2023-04-26T11:39:41.614Z,22.70
2023-04-26T11:42:10.435Z,24.40
2023-04-26T11:44:38.780Z,23.50
2023-04-26T11:47:07.488Z,25.10
2023-04-26T11:49:37.343Z,27.70
2023-04-26T11:52:07.366Z,24.70
2023-04-26T11:54:36.299Z,26.10
2023-04-26T11:57:16.692Z,23.90
2023-04-26T11:59:44.801Z,22.00
2023-04-26T12:02:19.261Z,22.50
2023-04-26T12:04:46.632Z,23.90
2023-04-26T12:07:18.729Z,24.80
2023-04-26T12:09:46.271Z,25.10
2023-04-26T12:12:13.026Z,25.30
2023-04-26T12:14:40.544Z,23.50
2023-04-26T12:17:08.014Z,25.10
2023-04-26T12:19:38.870Z,26.40
2023-04-26T12:22:07.218Z,23.60
2023-04-26T12:24:36.652Z,24.60
2023-04-26T12:27:06.604Z,21.80
2023-04-26T12:29:33.878Z,23.60
2023-04-26T12:32:01.233Z,24.60
2023-04-26T12:34:28.356Z,24.20
2023-04-26T12:36:55.134Z,24.90
2023-04-26T12:39:22.250Z,24.90
2023-04-26T12:41:49.374Z,23.40
2023-04-26T12:44:21.870Z,24.10
2023-04-26T12:46:49.496Z,23.60
2023-04-26T12:49:16.291Z,25.40
2023-04-26T12:51:42.928Z,23.70
2023-04-26T12:54:11.529Z,22.90
2023-04-26T12:56:44.226Z,24.20
2023-04-26T12:59:11.132Z,22.70
2023-04-26T13:01:37.881Z,19.80
2023-04-26T13:04:05.982Z,18.60
2023-04-26T13:06:33.283Z,20.80
2023-04-26T13:09:00.135Z,20.10
2023-04-26T13:11:26.814Z,18.40
2023-04-26T13:13:53.619Z,19.20
2023-04-26T13:16:20.453Z,20.90
2023-04-26T13:18:47.231Z,21.50
2023-04-26T13:21:13.864Z,22.40
2023-04-26T13:23:40.633Z,20.50
2023-04-26T13:26:07.347Z,17.70
2023-04-26T13:28:36.095Z,17.50
2023-04-26T13:31:03.280Z,16.40
2023-04-26T13:33:30.372Z,18.00
2023-04-26T13:35:57.091Z,18.70
2023-04-26T13:38:24.965Z,20.40
2023-04-26T13:40:52.541Z,22.10
2023-04-26T13:43:19.172Z,23.50
2023-04-26T13:45:46.103Z,22.60
2023-04-26T13:48:13.102Z,22.70
2023-04-26T13:50:39.977Z,23.30
2023-04-26T13:53:06.966Z,25.00
2023-04-26T13:55:33.653Z,24.50
2023-04-26T13:58:00.287Z,24.80
2023-04-26T14:00:27.405Z,27.20
2023-04-26T14:02:54.531Z,26.60
2023-04-26T14:05:21.668Z,26.90
2023-04-26T14:07:48.523Z,26.20
2023-04-26T14:10:15.760Z,24.80
2023-04-26T14:12:42.796Z,25.60
2023-04-26T14:15:09.947Z,25.30
2023-04-26T14:17:36.912Z,25.60
2023-04-26T14:20:05.270Z,26.20
2023-04-26T14:22:31.963Z,26.90
2023-04-26T14:24:58.670Z,23.90
2023-04-26T14:27:25.379Z,23.10
2023-04-26T14:29:52.061Z,24.80
2023-04-26T14:32:18.774Z,27.70
2023-04-26T14:34:45.618Z,26.60
2023-04-26T14:37:12.304Z,27.40
2023-04-26T14:39:39.261Z,27.70
2023-04-26T14:42:05.936Z,26.40
2023-04-26T14:44:32.801Z,24.20
2023-04-26T14:46:59.851Z,27.40
2023-04-26T14:49:26.816Z,26.90
2023-04-26T14:51:53.916Z,25.70
2023-04-26T14:54:21.094Z,24.40
2023-04-26T14:56:48.995Z,23.80
2023-04-26T14:59:18.678Z,25.60
2023-04-26T15:01:45.456Z,26.60
2023-04-26T15:04:12.470Z,24.90
2023-04-26T15:06:40.718Z,25.40
2023-04-26T15:09:08.954Z,27.70
2023-04-26T15:11:36.051Z,26.10
2023-04-26T15:14:02.814Z,25.20
2023-04-26T15:16:29.580Z,24.40
2023-04-26T15:18:56.459Z,24.30
2023-04-26T15:21:23.201Z,26.30
2023-04-26T15:23:49.891Z,26.80
2023-04-26T15:26:16.666Z,26.10
2023-04-26T15:28:43.372Z,25.80
2023-04-26T15:31:11.136Z,26.60
2023-04-26T15:33:37.916Z,25.20
2023-04-26T15:36:05.438Z,25.50
2023-04-26T15:38:34.176Z,27.20
2023-04-26T15:41:00.973Z,27.40
2023-04-26T15:43:28.061Z,26.20
2023-04-26T15:45:55.063Z,28.40
2023-04-26T15:48:26.240Z,26.80
2023-04-26T15:50:56.753Z,28.30
2023-04-26T15:53:27.443Z,28.70
2023-04-26T15:55:54.302Z,28.00
2023-04-26T15:58:21.548Z,27.90
2023-04-26T16:00:48.246Z,27.40
2023-04-26T16:03:22.306Z,26.20
2023-04-26T16:05:49.440Z,26.50
2023-04-26T16:08:27.694Z,26.30
2023-04-26T16:11:03.575Z,24.60
2023-04-26T16:13:30.718Z,24.70
2023-04-26T16:16:06.537Z,27.00
2023-04-26T16:18:34.068Z,25.20
2023-04-26T16:21:09.566Z,24.10
2023-04-26T16:23:46.681Z,26.20
2023-04-26T16:26:16.525Z,26.70
2023-04-26T16:28:43.797Z,24.60
2023-04-26T16:31:10.617Z,24.90
2023-04-26T16:33:37.521Z,25.20
2023-04-26T16:36:04.565Z,25.50
2023-04-26T16:38:31.356Z,26.20
2023-04-26T16:40:59.396Z,26.30
2023-04-26T16:43:29.463Z,27.40
2023-04-26T16:46:04.145Z,27.70
2023-04-26T16:48:32.864Z,28.50
2023-04-26T16:51:00.936Z,27.80
2023-04-26T16:53:27.824Z,28.30
2023-04-26T16:55:55.014Z,26.10
2023-04-26T16:58:23.490Z,25.90
2023-04-26T17:00:50.469Z,25.90
2023-04-26T17:03:18.123Z,26.80
2023-04-26T17:05:47.102Z,26.00
2023-04-26T17:08:17.958Z,27.50
2023-04-26T17:10:45.696Z,27.90
2023-04-26T17:13:15.451Z,27.80
2023-04-26T17:15:42.671Z,26.80
2023-04-26T17:18:10.011Z,26.20
2023-04-26T17:20:37.159Z,27.70
2023-04-26T17:23:04.322Z,28.20
2023-04-26T17:25:31.608Z,28.60
2023-04-26T17:27:58.813Z,29.80
2023-04-26T17:30:28.467Z,29.30
2023-04-26T17:32:55.214Z,28.70
2023-04-26T17:35:22.105Z,26.60
2023-04-26T17:37:50.372Z,26.80
2023-04-26T17:40:18.376Z,27.50
2023-04-26T17:42:46.252Z,26.70
2023-04-26T17:45:14.204Z,27.40
2023-04-26T17:47:42.386Z,27.80
2023-04-26T17:50:09.836Z,28.70
2023-04-26T17:52:37.147Z,29.10
2023-04-26T17:55:09.865Z,28.80
2023-04-26T17:57:37.407Z,29.30
2023-04-26T18:00:06.655Z,29.80
2023-04-26T18:02:33.479Z,29.20
2023-04-26T18:05:00.803Z,30.10
2023-04-26T18:07:27.537Z,31.30
2023-04-26T18:09:54.177Z,31.10
2023-04-26T18:12:21.078Z,32.10
2023-04-26T18:14:47.711Z,32.50
2023-04-26T18:17:17.706Z,33.30
2023-04-26T18:19:44.454Z,32.60
2023-04-26T18:22:11.100Z,33.50
2023-04-26T18:24:38.033Z,33.90
2023-04-26T18:27:04.715Z,34.10
2023-04-26T18:29:33.218Z,34.20
2023-04-26T18:31:59.917Z,34.50
2023-04-26T18:34:26.819Z,35.80
2023-04-26T18:36:53.430Z,36.20
2023-04-26T18:39:20.470Z,37.60
2023-04-26T18:41:47.387Z,37.20
2023-04-26T18:44:19.729Z,38.00
2023-04-26T18:46:46.835Z,38.00
2023-04-26T18:49:13.641Z,38.20
2023-04-26T18:51:40.316Z,40.00
2023-04-26T18:54:06.918Z,40.60
2023-04-26T18:56:33.611Z,40.10
2023-04-26T18:59:00.721Z,39.50
2023-04-26T19:01:27.639Z,39.60
2023-04-26T19:03:54.568Z,39.50
2023-04-26T19:06:21.477Z,40.30
2023-04-26T19:08:48.137Z,41.10
2023-04-26T19:11:14.916Z,41.90
2023-04-26T19:13:41.939Z,41.50
2023-04-26T19:16:12.680Z,41.30
2023-04-26T19:18:44.038Z,42.30
2023-04-26T19:21:10.864Z,41.80
2023-04-26T19:23:37.725Z,41.80
2023-04-26T19:26:07.048Z,42.70
2023-04-26T19:28:33.872Z,42.50
2023-04-26T19:31:01.430Z,43.10
2023-04-26T19:33:28.882Z,43.50
2023-04-26T19:35:58.899Z,44.10
2023-04-26T19:38:26.005Z,44.40
2023-04-26T19:40:53.131Z,44.60
2023-04-26T19:43:20.091Z,45.10
2023-04-26T19:45:46.940Z,45.50
2023-04-26T19:48:13.603Z,45.70
2023-04-26T19:50:41.682Z,46.70
2023-04-26T19:53:13.189Z,46.90
2023-04-26T19:55:41.319Z,47.20
2023-04-26T19:58:08.643Z,47.40
2023-04-26T20:00:41.466Z,47.50
2023-04-26T20:03:08.511Z,47.80
2023-04-26T20:05:35.592Z,48.20
2023-04-26T20:08:02.501Z,49.40
2023-04-26T20:10:33.654Z,49.50
2023-04-26T20:13:00.699Z,50.10
2023-04-26T20:15:27.873Z,50.80
2023-04-26T20:17:55.116Z,51.20
2023-04-26T20:20:22.065Z,51.50
2023-04-26T20:22:48.818Z,51.60
2023-04-26T20:25:15.914Z,52.40
2023-04-26T20:27:42.662Z,53.00
2023-04-26T20:30:09.881Z,53.20
2023-04-26T20:32:36.688Z,53.50
2023-04-26T20:35:04.522Z,53.60
2023-04-26T20:37:31.907Z,53.60
2023-04-26T20:39:58.603Z,53.90
2023-04-26T20:42:25.343Z,54.80
2023-04-26T20:44:52.296Z,54.70
2023-04-26T20:47:19.206Z,55.20
2023-04-26T20:49:45.852Z,55.20
2023-04-26T20:52:12.813Z,55.70
2023-04-26T20:54:39.518Z,57.10
2023-04-26T20:57:06.397Z,59.00
2023-04-26T20:59:33.104Z,58.50
2023-04-26T21:02:00.023Z,59.00
2023-04-26T21:04:27.055Z,60.00
2023-04-26T21:06:53.959Z,61.40
2023-04-26T21:09:21.496Z,61.70
2023-04-26T21:11:48.253Z,62.10
2023-04-26T21:14:14.870Z,62.80
2023-04-26T21:16:41.607Z,63.30
2023-04-26T21:19:08.499Z,63.70
2023-04-26T21:21:35.462Z,64.20
2023-04-26T21:24:03.251Z,64.60
2023-04-26T21:26:30.137Z,64.60
2023-04-26T21:28:56.877Z,64.90
2023-04-26T21:31:23.685Z,64.90
2023-04-26T21:33:50.807Z,64.90
2023-04-26T21:36:17.720Z,65.60
2023-04-26T21:38:44.552Z,65.90
2023-04-26T21:41:11.384Z,66.50
2023-04-26T21:43:38.082Z,66.90
2023-04-26T21:46:04.990Z,67.50
2023-04-26T21:48:33.939Z,67.90
2023-04-26T21:51:00.621Z,68.20
2023-04-26T21:53:27.480Z,68.80
2023-04-26T21:55:54.488Z,69.90
2023-04-26T21:58:22.097Z,69.40
2023-04-26T22:00:49.564Z,69.40
2023-04-26T22:03:17.164Z,69.70
2023-04-26T22:05:44.035Z,70.40
2023-04-26T22:08:10.670Z,70.60
2023-04-26T22:10:37.423Z,70.70
2023-04-26T22:13:05.113Z,71.40
2023-04-26T22:15:31.855Z,71.50
2023-04-26T22:17:58.573Z,71.70
2023-04-26T22:20:26.478Z,72.30
2023-04-26T22:22:53.637Z,73.40
2023-04-26T22:25:20.570Z,74.40
2023-04-26T22:27:47.583Z,75.30
2023-04-26T22:30:24.885Z,75.50
2023-04-26T22:32:55.548Z,75.80
2023-04-26T22:35:23.671Z,76.50
2023-04-26T22:37:50.581Z,76.70
2023-04-26T22:40:17.474Z,77.40
2023-04-26T22:42:44.489Z,78.00
2023-04-26T22:45:12.703Z,78.10
2023-04-26T22:47:40.156Z,77.80
2023-04-26T22:50:08.032Z,77.80
2023-04-26T22:52:35.061Z,78.10
2023-04-26T22:55:01.757Z,77.70
2023-04-26T22:57:29.409Z,78.10
2023-04-26T22:59:56.150Z,78.40
2023-04-26T23:02:22.944Z,78.50
2023-04-26T23:04:49.800Z,79.00
2023-04-26T23:07:16.630Z,79.30
2023-04-26T23:09:43.379Z,79.40
2023-04-26T23:12:10.079Z,79.40
2023-04-26T23:14:37.782Z,79.30
2023-04-26T23:17:05.470Z,79.50
2023-04-26T23:19:32.967Z,79.30
2023-04-26T23:22:00.120Z,78.90
2023-04-26T23:24:26.920Z,78.60
2023-04-26T23:26:53.715Z,78.10
2023-04-26T23:29:20.557Z,77.80
2023-04-26T23:31:47.348Z,77.70
2023-04-26T23:34:14.205Z,77.60
2023-04-26T23:36:41.085Z,77.60
2023-04-26T23:39:08.708Z,77.90
2023-04-26T23:41:35.884Z,78.10
2023-04-26T23:44:02.663Z,78.50
2023-04-26T23:46:29.427Z,78.70
2023-04-26T23:48:56.286Z,78.60
2023-04-26T23:51:23.008Z,79.00
2023-04-26T23:53:49.680Z,78.80
2023-04-26T23:56:16.442Z,79.20
2023-04-26T23:58:43.132Z,79.00
